sensor_id;sensor_type;location;lat;lon;timestamp;P1;durP1;ratioP1;P2;durP2;ratioP2
31746;SDS011;18319;48.974;8.462;2022-12-16T00:01:34;20.87;;;11.37;;
31746;SDS011;18319;48.974;8.462;2022-12-16T00:04:01;21.00;;;10.87;;
31746;SDS011;18319;48.974;8.462;2022-12-16T00:06:28;23.03;;;13.27;;
31746;SDS011;18319;48.974;8.462;2022-12-16T00:08:56;21.10;;;12.23;;
31746;SDS011;18319;48.974;8.462;2022-12-16T00:11:23;20.97;;;11.03;;
31746;SDS011;18319;48.974;8.462;2022-12-16T00:13:50;24.23;;;11.53;;
31746;SDS011;18319;48.974;8.462;2022-12-16T00:16:18;17.60;;;12.03;;
31746;SDS011;18319;48.974;8.462;2022-12-16T00:18:47;21.53;;;11.43;;
31746;SDS011;18319;48.974;8.462;2022-12-16T00:21:14;20.73;;;12.60;;
31746;SDS011;18319;48.974;8.462;2022-12-16T00:23:42;22.57;;;12.37;;
31746;SDS011;18319;48.974;8.462;2022-12-16T00:26:10;24.40;;;11.93;;
31746;SDS011;18319;48.974;8.462;2022-12-16T00:28:37;19.47;;;11.93;;
31746;SDS011;18319;48.974;8.462;2022-12-16T00:31:04;22.60;;;12.17;;
31746;SDS011;18319;48.974;8.462;2022-12-16T00:33:32;22.27;;;13.03;;
31746;SDS011;18319;48.974;8.462;2022-12-16T00:36:00;23.93;;;12.63;;
31746;SDS011;18319;48.974;8.462;2022-12-16T00:38:27;16.23;;;11.00;;
31746;SDS011;18319;48.974;8.462;2022-12-16T00:40:55;22.07;;;12.40;;
31746;SDS011;18319;48.974;8.462;2022-12-16T00:43:22;20.87;;;11.97;;
31746;SDS011;18319;48.974;8.462;2022-12-16T00:45:49;21.67;;;11.17;;
31746;SDS011;18319;48.974;8.462;2022-12-16T00:48:16;21.67;;;11.97;;
31746;SDS011;18319;48.974;8.462;2022-12-16T00:50:44;19.40;;;10.20;;
31746;SDS011;18319;48.974;8.462;2022-12-16T00:53:13;18.17;;;10.83;;
31746;SDS011;18319;48.974;8.462;2022-12-16T00:55:40;21.07;;;10.90;;
31746;SDS011;18319;48.974;8.462;2022-12-16T00:58:08;21.20;;;11.80;;
31746;SDS011;18319;48.974;8.462;2022-12-16T01:00:35;19.47;;;11.43;;
31746;SDS011;18319;48.974;8.462;2022-12-16T01:03:02;20.63;;;11.30;;
31746;SDS011;18319;48.974;8.462;2022-12-16T01:05:30;19.67;;;12.20;;
31746;SDS011;18319;48.974;8.462;2022-12-16T01:07:57;22.73;;;11.07;;
31746;SDS011;18319;48.974;8.462;2022-12-16T01:10:25;20.97;;;11.33;;
31746;SDS011;18319;48.974;8.462;2022-12-16T01:12:52;20.80;;;10.57;;
31746;SDS011;18319;48.974;8.462;2022-12-16T01:15:19;18.33;;;11.70;;
31746;SDS011;18319;48.974;8.462;2022-12-16T01:17:46;21.80;;;11.30;;
31746;SDS011;18319;48.974;8.462;2022-12-16T01:20:13;21.60;;;11.83;;
31746;SDS011;18319;48.974;8.462;2022-12-16T01:22:40;21.07;;;12.40;;
31746;SDS011;18319;48.974;8.462;2022-12-16T01:25:08;22.90;;;11.67;;
31746;SDS011;18319;48.974;8.462;2022-12-16T01:27:38;19.23;;;11.20;;
31746;SDS011;18319;48.974;8.462;2022-12-16T01:30:05;18.83;;;11.13;;
31746;SDS011;18319;48.974;8.462;2022-12-16T01:32:33;21.10;;;10.07;;
31746;SDS011;18319;48.974;8.462;2022-12-16T01:35:01;21.67;;;10.73;;
31746;SDS011;18319;48.974;8.462;2022-12-16T01:37:28;19.33;;;11.20;;
31746;SDS011;18319;48.974;8.462;2022-12-16T01:39:55;24.63;;;13.17;;
31746;SDS011;18319;48.974;8.462;2022-12-16T01:42:22;19.60;;;11.03;;
31746;SDS011;18319;48.974;8.462;2022-12-16T01:44:54;21.67;;;11.90;;
31746;SDS011;18319;48.974;8.462;2022-12-16T01:47:23;22.57;;;11.77;;
31746;SDS011;18319;48.974;8.462;2022-12-16T01:49:52;23.53;;;11.33;;
31746;SDS011;18319;48.974;8.462;2022-12-16T01:52:20;21.90;;;10.63;;
31746;SDS011;18319;48.974;8.462;2022-12-16T01:54:50;19.03;;;9.80;;
31746;SDS011;18319;48.974;8.462;2022-12-16T01:57:20;23.93;;;11.47;;
31746;SDS011;18319;48.974;8.462;2022-12-16T01:59:49;16.37;;;10.87;;
31746;SDS011;18319;48.974;8.462;2022-12-16T02:02:19;18.03;;;10.80;;
31746;SDS011;18319;48.974;8.462;2022-12-16T02:04:46;22.87;;;12.30;;
31746;SDS011;18319;48.974;8.462;2022-12-16T02:07:27;17.00;;;10.17;;
31746;SDS011;18319;48.974;8.462;2022-12-16T02:09:54;21.33;;;10.53;;
31746;SDS011;18319;48.974;8.462;2022-12-16T02:12:23;21.00;;;11.63;;
31746;SDS011;18319;48.974;8.462;2022-12-16T02:15:02;17.90;;;10.60;;
31746;SDS011;18319;48.974;8.462;2022-12-16T02:17:34;21.80;;;11.33;;
31746;SDS011;18319;48.974;8.462;2022-12-16T02:20:08;21.83;;;11.20;;
31746;SDS011;18319;48.974;8.462;2022-12-16T02:22:45;19.97;;;11.40;;
31746;SDS011;18319;48.974;8.462;2022-12-16T02:25:19;20.10;;;10.10;;
31746;SDS011;18319;48.974;8.462;2022-12-16T02:27:52;23.13;;;11.80;;
31746;SDS011;18319;48.974;8.462;2022-12-16T02:33:12;24.47;;;12.43;;
31746;SDS011;18319;48.974;8.462;2022-12-16T02:35:45;19.27;;;11.50;;
31746;SDS011;18319;48.974;8.462;2022-12-16T02:38:17;20.37;;;12.27;;
31746;SDS011;18319;48.974;8.462;2022-12-16T02:40:49;17.07;;;10.67;;
31746;SDS011;18319;48.974;8.462;2022-12-16T02:43:19;22.90;;;11.80;;
31746;SDS011;18319;48.974;8.462;2022-12-16T02:45:48;19.03;;;11.07;;
31746;SDS011;18319;48.974;8.462;2022-12-16T02:48:17;22.30;;;11.00;;
31746;SDS011;18319;48.974;8.462;2022-12-16T02:50:44;21.20;;;11.20;;
31746;SDS011;18319;48.974;8.462;2022-12-16T02:53:13;19.67;;;11.50;;
31746;SDS011;18319;48.974;8.462;2022-12-16T02:55:42;18.77;;;10.80;;
31746;SDS011;18319;48.974;8.462;2022-12-16T02:58:15;17.93;;;11.97;;
31746;SDS011;18319;48.974;8.462;2022-12-16T03:00:48;18.87;;;11.23;;
31746;SDS011;18319;48.974;8.462;2022-12-16T03:03:19;20.10;;;11.43;;
31746;SDS011;18319;48.974;8.462;2022-12-16T03:05:47;19.43;;;12.07;;
31746;SDS011;18319;48.974;8.462;2022-12-16T03:08:17;24.43;;;11.43;;
31746;SDS011;18319;48.974;8.462;2022-12-16T03:10:46;22.60;;;11.00;;
31746;SDS011;18319;48.974;8.462;2022-12-16T03:13:15;16.93;;;11.47;;
31746;SDS011;18319;48.974;8.462;2022-12-16T03:15:43;20.10;;;11.37;;
31746;SDS011;18319;48.974;8.462;2022-12-16T03:18:12;18.37;;;10.87;;
31746;SDS011;18319;48.974;8.462;2022-12-16T03:20:42;20.53;;;10.77;;
31746;SDS011;18319;48.974;8.462;2022-12-16T03:23:11;19.17;;;11.57;;
31746;SDS011;18319;48.974;8.462;2022-12-16T03:25:41;19.77;;;10.93;;
31746;SDS011;18319;48.974;8.462;2022-12-16T03:28:10;16.40;;;9.37;;
31746;SDS011;18319;48.974;8.462;2022-12-16T03:30:42;20.47;;;11.53;;
31746;SDS011;18319;48.974;8.462;2022-12-16T03:33:11;21.83;;;12.03;;
31746;SDS011;18319;48.974;8.462;2022-12-16T03:35:43;21.30;;;12.30;;
31746;SDS011;18319;48.974;8.462;2022-12-16T03:38:13;19.73;;;10.70;;
31746;SDS011;18319;48.974;8.462;2022-12-16T03:40:41;20.17;;;10.87;;
31746;SDS011;18319;48.974;8.462;2022-12-16T03:43:09;19.37;;;10.80;;
31746;SDS011;18319;48.974;8.462;2022-12-16T03:45:38;17.07;;;10.07;;
31746;SDS011;18319;48.974;8.462;2022-12-16T03:48:09;16.77;;;9.70;;
31746;SDS011;18319;48.974;8.462;2022-12-16T03:50:37;19.50;;;10.10;;
31746;SDS011;18319;48.974;8.462;2022-12-16T03:53:06;23.47;;;11.23;;
31746;SDS011;18319;48.974;8.462;2022-12-16T03:55:33;20.43;;;9.90;;
31746;SDS011;18319;48.974;8.462;2022-12-16T03:58:00;20.50;;;10.50;;
31746;SDS011;18319;48.974;8.462;2022-12-16T04:00:27;17.50;;;10.37;;
31746;SDS011;18319;48.974;8.462;2022-12-16T04:02:54;14.30;;;9.50;;
31746;SDS011;18319;48.974;8.462;2022-12-16T04:05:24;20.30;;;11.00;;
31746;SDS011;18319;48.974;8.462;2022-12-16T04:07:51;22.77;;;10.67;;
31746;SDS011;18319;48.974;8.462;2022-12-16T04:10:19;18.53;;;10.60;;
31746;SDS011;18319;48.974;8.462;2022-12-16T04:13:07;18.37;;;10.23;;
31746;SDS011;18319;48.974;8.462;2022-12-16T04:15:52;17.47;;;10.23;;
31746;SDS011;18319;48.974;8.462;2022-12-16T04:18:36;26.23;;;10.63;;
31746;SDS011;18319;48.974;8.462;2022-12-16T04:21:21;20.30;;;10.57;;
31746;SDS011;18319;48.974;8.462;2022-12-16T04:24:07;16.13;;;9.20;;
31746;SDS011;18319;48.974;8.462;2022-12-16T04:26:45;16.30;;;9.47;;
31746;SDS011;18319;48.974;8.462;2022-12-16T04:29:30;17.10;;;10.00;;
31746;SDS011;18319;48.974;8.462;2022-12-16T04:31:57;18.93;;;9.70;;
31746;SDS011;18319;48.974;8.462;2022-12-16T04:34:25;16.93;;;9.87;;
31746;SDS011;18319;48.974;8.462;2022-12-16T04:36:52;17.97;;;9.23;;
31746;SDS011;18319;48.974;8.462;2022-12-16T04:39:37;20.63;;;10.00;;
31746;SDS011;18319;48.974;8.462;2022-12-16T04:42:37;15.23;;;9.43;;
31746;SDS011;18319;48.974;8.462;2022-12-16T04:45:22;16.10;;;9.13;;
31746;SDS011;18319;48.974;8.462;2022-12-16T04:48:06;16.43;;;8.93;;
31746;SDS011;18319;48.974;8.462;2022-12-16T04:50:51;14.80;;;8.57;;
31746;SDS011;18319;48.974;8.462;2022-12-16T04:53:36;16.57;;;9.43;;
31746;SDS011;18319;48.974;8.462;2022-12-16T04:56:20;19.53;;;9.77;;
31746;SDS011;18319;48.974;8.462;2022-12-16T04:59:06;18.67;;;10.67;;
31746;SDS011;18319;48.974;8.462;2022-12-16T05:01:53;19.43;;;10.47;;
31746;SDS011;18319;48.974;8.462;2022-12-16T05:04:38;12.57;;;8.57;;
31746;SDS011;18319;48.974;8.462;2022-12-16T05:07:23;15.40;;;8.50;;
31746;SDS011;18319;48.974;8.462;2022-12-16T05:10:07;18.47;;;9.13;;
31746;SDS011;18319;48.974;8.462;2022-12-16T05:12:52;15.10;;;8.33;;
31746;SDS011;18319;48.974;8.462;2022-12-16T05:15:38;16.27;;;8.53;;
31746;SDS011;18319;48.974;8.462;2022-12-16T05:18:23;15.50;;;8.63;;
31746;SDS011;18319;48.974;8.462;2022-12-16T05:21:07;14.87;;;9.23;;
31746;SDS011;18319;48.974;8.462;2022-12-16T05:23:52;19.57;;;9.47;;
31746;SDS011;18319;48.974;8.462;2022-12-16T05:26:37;18.30;;;9.07;;
31746;SDS011;18319;48.974;8.462;2022-12-16T05:29:21;14.07;;;8.47;;
31746;SDS011;18319;48.974;8.462;2022-12-16T05:32:07;19.97;;;9.37;;
31746;SDS011;18319;48.974;8.462;2022-12-16T05:34:52;15.17;;;7.97;;
31746;SDS011;18319;48.974;8.462;2022-12-16T05:37:36;14.47;;;8.47;;
31746;SDS011;18319;48.974;8.462;2022-12-16T05:40:21;16.57;;;8.50;;
31746;SDS011;18319;48.974;8.462;2022-12-16T05:43:06;18.27;;;8.73;;
31746;SDS011;18319;48.974;8.462;2022-12-16T05:45:50;14.30;;;8.53;;
31746;SDS011;18319;48.974;8.462;2022-12-16T05:48:36;17.93;;;9.17;;
31746;SDS011;18319;48.974;8.462;2022-12-16T05:51:21;15.70;;;8.27;;
31746;SDS011;18319;48.974;8.462;2022-12-16T05:54:05;17.83;;;8.40;;
31746;SDS011;18319;48.974;8.462;2022-12-16T05:56:50;11.80;;;6.93;;
31746;SDS011;18319;48.974;8.462;2022-12-16T05:59:35;17.13;;;8.33;;
31746;SDS011;18319;48.974;8.462;2022-12-16T06:02:19;15.97;;;7.73;;
31746;SDS011;18319;48.974;8.462;2022-12-16T06:05:05;19.70;;;8.40;;
31746;SDS011;18319;48.974;8.462;2022-12-16T06:08:02;18.40;;;7.87;;
31746;SDS011;18319;48.974;8.462;2022-12-16T06:10:46;13.20;;;8.00;;
31746;SDS011;18319;48.974;8.462;2022-12-16T06:13:31;20.07;;;9.93;;
31746;SDS011;18319;48.974;8.462;2022-12-16T06:16:16;16.97;;;8.47;;
31746;SDS011;18319;48.974;8.462;2022-12-16T06:19:01;18.13;;;7.70;;
31746;SDS011;18319;48.974;8.462;2022-12-16T06:21:43;17.03;;;8.63;;
31746;SDS011;18319;48.974;8.462;2022-12-16T06:24:28;14.60;;;7.73;;
31746;SDS011;18319;48.974;8.462;2022-12-16T06:27:12;11.83;;;7.03;;
31746;SDS011;18319;48.974;8.462;2022-12-16T06:29:57;14.27;;;7.43;;
31746;SDS011;18319;48.974;8.462;2022-12-16T06:32:41;14.80;;;8.53;;
31746;SDS011;18319;48.974;8.462;2022-12-16T06:35:26;14.70;;;7.03;;
31746;SDS011;18319;48.974;8.462;2022-12-16T06:38:08;11.53;;;7.03;;
31746;SDS011;18319;48.974;8.462;2022-12-16T06:40:53;12.30;;;7.37;;
31746;SDS011;18319;48.974;8.462;2022-12-16T06:43:38;10.27;;;7.20;;
31746;SDS011;18319;48.974;8.462;2022-12-16T06:46:23;15.63;;;7.77;;
31746;SDS011;18319;48.974;8.462;2022-12-16T06:49:07;13.37;;;6.43;;
31746;SDS011;18319;48.974;8.462;2022-12-16T06:51:52;10.87;;;6.83;;
31746;SDS011;18319;48.974;8.462;2022-12-16T06:54:38;17.93;;;8.03;;
31746;SDS011;18319;48.974;8.462;2022-12-16T06:57:22;13.20;;;7.57;;
31746;SDS011;18319;48.974;8.462;2022-12-16T07:00:08;16.23;;;7.90;;
31746;SDS011;18319;48.974;8.462;2022-12-16T07:02:52;13.03;;;7.17;;
31746;SDS011;18319;48.974;8.462;2022-12-16T07:05:37;11.83;;;7.53;;
31746;SDS011;18319;48.974;8.462;2022-12-16T07:08:21;13.83;;;7.43;;
31746;SDS011;18319;48.974;8.462;2022-12-16T07:11:07;15.50;;;7.97;;
31746;SDS011;18319;48.974;8.462;2022-12-16T07:13:52;12.93;;;6.70;;
31746;SDS011;18319;48.974;8.462;2022-12-16T07:16:37;16.93;;;8.37;;
31746;SDS011;18319;48.974;8.462;2022-12-16T07:19:21;18.03;;;7.37;;
31746;SDS011;18319;48.974;8.462;2022-12-16T07:22:14;14.37;;;7.03;;
31746;SDS011;18319;48.974;8.462;2022-12-16T07:24:59;12.07;;;7.00;;
31746;SDS011;18319;48.974;8.462;2022-12-16T07:27:45;11.57;;;7.13;;
31746;SDS011;18319;48.974;8.462;2022-12-16T07:30:30;9.80;;;6.57;;
31746;SDS011;18319;48.974;8.462;2022-12-16T07:33:15;17.53;;;7.57;;
31746;SDS011;18319;48.974;8.462;2022-12-16T07:36:00;11.90;;;6.40;;
31746;SDS011;18319;48.974;8.462;2022-12-16T07:38:50;15.27;;;6.87;;
31746;SDS011;18319;48.974;8.462;2022-12-16T07:41:34;16.93;;;7.33;;
31746;SDS011;18319;48.974;8.462;2022-12-16T07:44:20;16.10;;;6.97;;
31746;SDS011;18319;48.974;8.462;2022-12-16T07:47:05;15.13;;;6.70;;
31746;SDS011;18319;48.974;8.462;2022-12-16T07:49:50;12.43;;;7.60;;
31746;SDS011;18319;48.974;8.462;2022-12-16T07:52:34;12.70;;;7.17;;
31746;SDS011;18319;48.974;8.462;2022-12-16T07:55:19;11.00;;;7.23;;
31746;SDS011;18319;48.974;8.462;2022-12-16T07:58:04;12.47;;;6.47;;
31746;SDS011;18319;48.974;8.462;2022-12-16T08:00:50;20.27;;;8.77;;
31746;SDS011;18319;48.974;8.462;2022-12-16T08:03:34;11.17;;;6.77;;
31746;SDS011;18319;48.974;8.462;2022-12-16T08:06:19;9.47;;;6.53;;
31746;SDS011;18319;48.974;8.462;2022-12-16T08:09:04;11.13;;;6.13;;
31746;SDS011;18319;48.974;8.462;2022-12-16T08:11:51;11.50;;;6.97;;
31746;SDS011;18319;48.974;8.462;2022-12-16T08:14:35;12.03;;;6.43;;
31746;SDS011;18319;48.974;8.462;2022-12-16T08:17:30;14.43;;;6.90;;
31746;SDS011;18319;48.974;8.462;2022-12-16T08:20:15;11.43;;;6.27;;
31746;SDS011;18319;48.974;8.462;2022-12-16T08:22:59;13.10;;;7.80;;
31746;SDS011;18319;48.974;8.462;2022-12-16T08:25:43;15.13;;;7.77;;
31746;SDS011;18319;48.974;8.462;2022-12-16T08:28:28;15.20;;;7.47;;
31746;SDS011;18319;48.974;8.462;2022-12-16T08:31:13;10.97;;;6.43;;
31746;SDS011;18319;48.974;8.462;2022-12-16T08:33:58;15.07;;;8.33;;
31746;SDS011;18319;48.974;8.462;2022-12-16T08:36:43;13.03;;;8.10;;
31746;SDS011;18319;48.974;8.462;2022-12-16T08:39:28;17.10;;;9.07;;
31746;SDS011;18319;48.974;8.462;2022-12-16T08:42:13;9.97;;;7.20;;
31746;SDS011;18319;48.974;8.462;2022-12-16T08:44:58;18.63;;;8.63;;
31746;SDS011;18319;48.974;8.462;2022-12-16T08:47:43;15.77;;;6.83;;
31746;SDS011;18319;48.974;8.462;2022-12-16T08:50:29;19.33;;;7.60;;
31746;SDS011;18319;48.974;8.462;2022-12-16T08:53:14;11.07;;;6.53;;
31746;SDS011;18319;48.974;8.462;2022-12-16T08:55:59;10.70;;;6.70;;
31746;SDS011;18319;48.974;8.462;2022-12-16T08:58:43;14.70;;;7.67;;
31746;SDS011;18319;48.974;8.462;2022-12-16T09:01:28;9.73;;;7.67;;
31746;SDS011;18319;48.974;8.462;2022-12-16T09:04:13;11.20;;;6.80;;
31746;SDS011;18319;48.974;8.462;2022-12-16T09:06:59;16.13;;;7.47;;
31746;SDS011;18319;48.974;8.462;2022-12-16T09:09:43;19.43;;;8.07;;
31746;SDS011;18319;48.974;8.462;2022-12-16T09:12:28;15.10;;;7.73;;
31746;SDS011;18319;48.974;8.462;2022-12-16T09:15:13;12.70;;;7.33;;
31746;SDS011;18319;48.974;8.462;2022-12-16T09:17:58;14.93;;;7.53;;
31746;SDS011;18319;48.974;8.462;2022-12-16T09:20:42;15.37;;;8.00;;
31746;SDS011;18319;48.974;8.462;2022-12-16T09:23:28;17.23;;;7.50;;
31746;SDS011;18319;48.974;8.462;2022-12-16T09:26:13;17.37;;;8.13;;
31746;SDS011;18319;48.974;8.462;2022-12-16T09:28:58;12.83;;;7.70;;
31746;SDS011;18319;48.974;8.462;2022-12-16T09:31:43;14.70;;;8.63;;
31746;SDS011;18319;48.974;8.462;2022-12-16T09:34:27;18.37;;;8.63;;
31746;SDS011;18319;48.974;8.462;2022-12-16T09:37:26;15.17;;;8.03;;
31746;SDS011;18319;48.974;8.462;2022-12-16T09:40:13;13.17;;;7.93;;
31746;SDS011;18319;48.974;8.462;2022-12-16T09:43:00;12.37;;;7.90;;
31746;SDS011;18319;48.974;8.462;2022-12-16T09:45:46;17.93;;;8.60;;
31746;SDS011;18319;48.974;8.462;2022-12-16T09:48:33;11.53;;;8.47;;
31746;SDS011;18319;48.974;8.462;2022-12-16T09:51:22;18.43;;;8.77;;
31746;SDS011;18319;48.974;8.462;2022-12-16T09:54:07;11.43;;;8.27;;
31746;SDS011;18319;48.974;8.462;2022-12-16T09:57:04;13.50;;;7.40;;
31746;SDS011;18319;48.974;8.462;2022-12-16T09:59:51;17.20;;;8.93;;
31746;SDS011;18319;48.974;8.462;2022-12-16T10:02:37;17.33;;;8.87;;
31746;SDS011;18319;48.974;8.462;2022-12-16T10:05:24;13.70;;;8.60;;
31746;SDS011;18319;48.974;8.462;2022-12-16T10:08:13;17.67;;;9.73;;
31746;SDS011;18319;48.974;8.462;2022-12-16T10:11:08;13.10;;;8.90;;
31746;SDS011;18319;48.974;8.462;2022-12-16T10:13:59;11.43;;;7.57;;
31746;SDS011;18319;48.974;8.462;2022-12-16T10:16:49;14.37;;;8.43;;
31746;SDS011;18319;48.974;8.462;2022-12-16T10:19:39;16.27;;;9.13;;
31746;SDS011;18319;48.974;8.462;2022-12-16T10:22:26;14.40;;;8.90;;
31746;SDS011;18319;48.974;8.462;2022-12-16T10:25:14;11.87;;;7.57;;
31746;SDS011;18319;48.974;8.462;2022-12-16T10:28:03;13.43;;;8.00;;
31746;SDS011;18319;48.974;8.462;2022-12-16T10:30:57;11.47;;;7.97;;
31746;SDS011;18319;48.974;8.462;2022-12-16T10:33:42;13.53;;;7.83;;
31746;SDS011;18319;48.974;8.462;2022-12-16T10:36:27;14.83;;;7.93;;
31746;SDS011;18319;48.974;8.462;2022-12-16T10:39:15;15.23;;;8.80;;
31746;SDS011;18319;48.974;8.462;2022-12-16T10:42:02;11.93;;;8.27;;
31746;SDS011;18319;48.974;8.462;2022-12-16T10:44:49;12.77;;;7.93;;
31746;SDS011;18319;48.974;8.462;2022-12-16T10:47:37;15.30;;;8.23;;
31746;SDS011;18319;48.974;8.462;2022-12-16T10:50:21;16.77;;;8.40;;
31746;SDS011;18319;48.974;8.462;2022-12-16T10:53:15;12.90;;;7.93;;
31746;SDS011;18319;48.974;8.462;2022-12-16T10:56:02;12.13;;;8.47;;
31746;SDS011;18319;48.974;8.462;2022-12-16T10:58:52;16.20;;;10.27;;
31746;SDS011;18319;48.974;8.462;2022-12-16T11:01:38;14.70;;;9.00;;
31746;SDS011;18319;48.974;8.462;2022-12-16T11:04:27;15.90;;;9.50;;
31746;SDS011;18319;48.974;8.462;2022-12-16T11:10:25;14.53;;;10.00;;
31746;SDS011;18319;48.974;8.462;2022-12-16T11:13:12;19.10;;;9.70;;
31746;SDS011;18319;48.974;8.462;2022-12-16T11:16:07;14.80;;;8.80;;
31746;SDS011;18319;48.974;8.462;2022-12-16T11:18:53;13.93;;;9.13;;
31746;SDS011;18319;48.974;8.462;2022-12-16T11:21:39;15.67;;;8.73;;
31746;SDS011;18319;48.974;8.462;2022-12-16T11:24:24;15.80;;;8.63;;
31746;SDS011;18319;48.974;8.462;2022-12-16T11:27:21;18.83;;;9.87;;
31746;SDS011;18319;48.974;8.462;2022-12-16T11:30:14;19.07;;;9.67;;
31746;SDS011;18319;48.974;8.462;2022-12-16T11:33:03;16.37;;;9.13;;
31746;SDS011;18319;48.974;8.462;2022-12-16T11:35:49;17.20;;;9.80;;
31746;SDS011;18319;48.974;8.462;2022-12-16T11:38:39;15.93;;;9.70;;
31746;SDS011;18319;48.974;8.462;2022-12-16T11:41:34;16.07;;;9.17;;
31746;SDS011;18319;48.974;8.462;2022-12-16T11:44:20;12.63;;;7.73;;
31746;SDS011;18319;48.974;8.462;2022-12-16T11:47:06;16.63;;;8.57;;
31746;SDS011;18319;48.974;8.462;2022-12-16T11:49:56;12.10;;;7.67;;
31746;SDS011;18319;48.974;8.462;2022-12-16T11:52:41;17.57;;;8.57;;
31746;SDS011;18319;48.974;8.462;2022-12-16T11:55:30;13.70;;;8.77;;
31746;SDS011;18319;48.974;8.462;2022-12-16T11:58:17;12.40;;;8.00;;
31746;SDS011;18319;48.974;8.462;2022-12-16T12:01:04;13.97;;;8.77;;
31746;SDS011;18319;48.974;8.462;2022-12-16T12:03:49;15.20;;;8.40;;
31746;SDS011;18319;48.974;8.462;2022-12-16T12:06:41;15.73;;;8.43;;
31746;SDS011;18319;48.974;8.462;2022-12-16T12:09:29;15.47;;;8.10;;
31746;SDS011;18319;48.974;8.462;2022-12-16T12:12:18;11.23;;;7.10;;
31746;SDS011;18319;48.974;8.462;2022-12-16T12:15:10;14.63;;;9.43;;
31746;SDS011;18319;48.974;8.462;2022-12-16T12:17:58;12.90;;;7.83;;
31746;SDS011;18319;48.974;8.462;2022-12-16T12:20:46;13.00;;;8.60;;
31746;SDS011;18319;48.974;8.462;2022-12-16T12:23:36;12.80;;;8.20;;
31746;SDS011;18319;48.974;8.462;2022-12-16T12:26:23;10.87;;;7.97;;
31746;SDS011;18319;48.974;8.462;2022-12-16T12:29:13;15.30;;;9.07;;
31746;SDS011;18319;48.974;8.462;2022-12-16T12:32:14;13.90;;;8.47;;
31746;SDS011;18319;48.974;8.462;2022-12-16T12:35:01;14.50;;;8.93;;
31746;SDS011;18319;48.974;8.462;2022-12-16T12:37:52;14.00;;;8.67;;
31746;SDS011;18319;48.974;8.462;2022-12-16T12:40:40;15.27;;;8.77;;
31746;SDS011;18319;48.974;8.462;2022-12-16T12:43:31;16.10;;;9.10;;
31746;SDS011;18319;48.974;8.462;2022-12-16T12:46:20;12.97;;;8.30;;
31746;SDS011;18319;48.974;8.462;2022-12-16T12:49:07;14.30;;;8.43;;
31746;SDS011;18319;48.974;8.462;2022-12-16T12:51:58;15.17;;;8.43;;
31746;SDS011;18319;48.974;8.462;2022-12-16T12:54:46;14.50;;;8.67;;
31746;SDS011;18319;48.974;8.462;2022-12-16T12:57:33;14.40;;;9.30;;
31746;SDS011;18319;48.974;8.462;2022-12-16T13:00:20;14.97;;;8.97;;
31746;SDS011;18319;48.974;8.462;2022-12-16T13:03:10;12.87;;;9.17;;
31746;SDS011;18319;48.974;8.462;2022-12-16T13:05:58;14.97;;;9.07;;
31746;SDS011;18319;48.974;8.462;2022-12-16T13:08:45;13.83;;;9.27;;
31746;SDS011;18319;48.974;8.462;2022-12-16T13:11:37;14.53;;;8.63;;
31746;SDS011;18319;48.974;8.462;2022-12-16T13:17:25;14.20;;;8.57;;
31746;SDS011;18319;48.974;8.462;2022-12-16T13:23:28;14.83;;;9.37;;
31746;SDS011;18319;48.974;8.462;2022-12-16T13:26:14;13.37;;;8.47;;
31746;SDS011;18319;48.974;8.462;2022-12-16T13:29:01;15.03;;;8.90;;
31746;SDS011;18319;48.974;8.462;2022-12-16T13:31:58;14.23;;;8.73;;
31746;SDS011;18319;48.974;8.462;2022-12-16T13:34:43;14.87;;;9.27;;
31746;SDS011;18319;48.974;8.462;2022-12-16T13:37:28;16.27;;;10.33;;
31746;SDS011;18319;48.974;8.462;2022-12-16T13:40:15;17.50;;;10.80;;
31746;SDS011;18319;48.974;8.462;2022-12-16T13:43:01;15.20;;;9.57;;
31746;SDS011;18319;48.974;8.462;2022-12-16T13:48:46;14.37;;;9.70;;
31746;SDS011;18319;48.974;8.462;2022-12-16T13:54:45;17.50;;;10.17;;
31746;SDS011;18319;48.974;8.462;2022-12-16T13:57:36;20.20;;;10.43;;
31746;SDS011;18319;48.974;8.462;2022-12-16T14:00:22;15.03;;;9.33;;
31746;SDS011;18319;48.974;8.462;2022-12-16T14:03:09;14.77;;;9.33;;
31746;SDS011;18319;48.974;8.462;2022-12-16T14:05:55;11.07;;;8.63;;
31746;SDS011;18319;48.974;8.462;2022-12-16T14:08:40;13.90;;;9.47;;
31746;SDS011;18319;48.974;8.462;2022-12-16T14:11:39;14.73;;;9.10;;
31746;SDS011;18319;48.974;8.462;2022-12-16T14:14:29;14.43;;;9.10;;
31746;SDS011;18319;48.974;8.462;2022-12-16T14:17:16;12.97;;;9.53;;
31746;SDS011;18319;48.974;8.462;2022-12-16T14:20:05;14.83;;;8.93;;
31746;SDS011;18319;48.974;8.462;2022-12-16T14:22:54;12.13;;;7.47;;
31746;SDS011;18319;48.974;8.462;2022-12-16T14:25:40;14.30;;;8.00;;
31746;SDS011;18319;48.974;8.462;2022-12-16T14:28:27;12.40;;;7.67;;
31746;SDS011;18319;48.974;8.462;2022-12-16T14:31:15;13.60;;;8.77;;
31746;SDS011;18319;48.974;8.462;2022-12-16T14:34:01;15.77;;;9.27;;
31746;SDS011;18319;48.974;8.462;2022-12-16T14:36:46;11.83;;;8.50;;
31746;SDS011;18319;48.974;8.462;2022-12-16T14:39:35;12.53;;;7.67;;
31746;SDS011;18319;48.974;8.462;2022-12-16T14:42:21;11.33;;;7.13;;
31746;SDS011;18319;48.974;8.462;2022-12-16T14:45:16;11.43;;;7.53;;
31746;SDS011;18319;48.974;8.462;2022-12-16T14:48:13;9.93;;;7.43;;
31746;SDS011;18319;48.974;8.462;2022-12-16T14:51:13;15.20;;;7.50;;
31746;SDS011;18319;48.974;8.462;2022-12-16T14:54:08;11.17;;;7.40;;
31746;SDS011;18319;48.974;8.462;2022-12-16T14:56:56;12.90;;;7.93;;
31746;SDS011;18319;48.974;8.462;2022-12-16T14:59:41;13.07;;;7.30;;
31746;SDS011;18319;48.974;8.462;2022-12-16T15:02:27;14.20;;;7.83;;
31746;SDS011;18319;48.974;8.462;2022-12-16T15:05:18;12.03;;;7.67;;
31746;SDS011;18319;48.974;8.462;2022-12-16T15:08:04;12.07;;;7.23;;
31746;SDS011;18319;48.974;8.462;2022-12-16T15:10:49;13.13;;;7.80;;
31746;SDS011;18319;48.974;8.462;2022-12-16T15:13:34;11.03;;;7.77;;
31746;SDS011;18319;48.974;8.462;2022-12-16T15:16:20;11.50;;;8.13;;
31746;SDS011;18319;48.974;8.462;2022-12-16T15:19:08;12.03;;;8.00;;
31746;SDS011;18319;48.974;8.462;2022-12-16T15:21:55;9.53;;;7.63;;
31746;SDS011;18319;48.974;8.462;2022-12-16T15:24:43;13.80;;;9.17;;
31746;SDS011;18319;48.974;8.462;2022-12-16T15:27:32;15.40;;;7.90;;
31746;SDS011;18319;48.974;8.462;2022-12-16T15:33:30;12.20;;;7.10;;
31746;SDS011;18319;48.974;8.462;2022-12-16T15:36:20;13.30;;;8.33;;
31746;SDS011;18319;48.974;8.462;2022-12-16T15:39:13;12.13;;;7.47;;
31746;SDS011;18319;48.974;8.462;2022-12-16T15:41:57;10.93;;;7.13;;
31746;SDS011;18319;48.974;8.462;2022-12-16T15:44:44;12.30;;;8.40;;
31746;SDS011;18319;48.974;8.462;2022-12-16T15:47:30;13.37;;;7.93;;
31746;SDS011;18319;48.974;8.462;2022-12-16T15:50:17;13.30;;;7.83;;
31746;SDS011;18319;48.974;8.462;2022-12-16T15:53:15;11.20;;;8.03;;
31746;SDS011;18319;48.974;8.462;2022-12-16T15:56:01;17.23;;;8.40;;
31746;SDS011;18319;48.974;8.462;2022-12-16T15:58:46;12.83;;;8.17;;
31746;SDS011;18319;48.974;8.462;2022-12-16T16:01:42;14.13;;;7.73;;
31746;SDS011;18319;48.974;8.462;2022-12-16T16:04:27;12.53;;;8.33;;
31746;SDS011;18319;48.974;8.462;2022-12-16T16:07:13;12.47;;;9.40;;
31746;SDS011;18319;48.974;8.462;2022-12-16T16:10:03;16.77;;;10.13;;
31746;SDS011;18319;48.974;8.462;2022-12-16T16:12:47;17.17;;;11.17;;
31746;SDS011;18319;48.974;8.462;2022-12-16T16:15:32;15.17;;;10.17;;
31746;SDS011;18319;48.974;8.462;2022-12-16T16:18:16;11.57;;;9.23;;